Time;durP1;ratioP1;P1;durP2;ratioP2;P2;SDS_P1;SDS_P2;PMS_P1;PMS_P2;Temp;Humidity;BMP_temperature;BMP_pressure;BME280_temperature;BME280_humidity;BME280_pressure;Samples;Min_cycle;Max_cycle;Signal;HPM_P1;HPM_P2
2022/07/27 00:01:29;;;;;;;9.05;3.45;;;;;;;20.51;56.59;99564.31;7606509;32;40080;-78
2022/07/27 00:05:45;;;;;;;8.27;4.00;;;;;;;20.41;56.64;99570.28;7606599;32;36686;-78
2022/07/27 00:10:02;;;;;;;6.93;3.97;;;;;;;20.39;56.55;99561.53;7606884;32;39851;-77
2022/07/27 00:14:18;;;;;;;9.13;3.83;;;;;;;20.53;55.72;99556.47;7631240;32;39977;-79
2022/07/27 00:18:34;;;;;;;5.55;3.22;;;;;;;20.51;55.17;99553.22;7632165;32;37942;-79
2022/07/27 00:22:50;;;;;;;6.43;3.70;;;;;;;20.52;55.24;99554.03;7632324;32;37140;-79
2022/07/27 00:27:07;;;;;;;6.40;3.62;;;;;;;20.58;54.71;99553.47;7632447;32;39560;-78
2022/07/27 00:31:23;;;;;;;4.43;3.35;;;;;;;20.09;55.44;99558.87;7608486;32;40771;-79
2022/07/27 00:35:39;;;;;;;4.53;3.30;;;;;;;20.05;55.55;99552.44;7606199;32;39140;-79
2022/07/27 00:39:55;;;;;;;8.13;3.70;;;;;;;20.16;55.68;99544.50;7609939;32;38295;-79
2022/07/27 00:44:11;;;;;;;6.87;4.00;;;;;;;20.22;55.18;99551.44;7631961;32;39046;-79
2022/07/27 00:48:28;;;;;;;6.97;3.67;;;;;;;19.99;56.15;99553.78;7619188;32;39671;-79
2022/07/27 00:52:45;;;;;;;8.43;3.80;;;;;;;20.04;56.53;99556.34;7605858;32;38681;-78
2022/07/27 00:57:01;;;;;;;7.60;3.67;;;;;;;20.10;56.21;99554.97;7605897;32;37280;-79
2022/07/27 01:01:20;;;;;;;5.93;3.55;;;;;;;20.06;56.16;99551.28;7605979;32;39287;-79
2022/07/27 01:05:37;;;;;;;6.90;3.55;;;;;;;20.03;56.38;99560.28;7592979;32;40036;-77
2022/07/27 01:09:58;;;;;;;5.40;3.55;;;;;;;19.82;57.08;99563.09;7607109;32;38746;-78
2022/07/27 01:14:15;;;;;;;6.65;3.40;;;;;;;19.88;56.90;99576.34;7631830;32;37881;-79
2022/07/27 01:18:33;;;;;;;7.50;3.50;;;;;;;20.07;56.05;99572.25;7630319;32;39925;-79
2022/07/27 01:22:49;;;;;;;11.32;3.95;;;;;;;20.11;54.97;99573.22;7631580;32;39988;-78
2022/07/27 01:27:06;;;;;;;6.72;3.62;;;;;;;20.20;54.36;99576.69;7631546;32;38332;-77
2022/07/27 01:31:22;;;;;;;4.68;3.28;;;;;;;20.44;54.18;99578.72;7631601;32;37903;-79
2022/07/27 01:35:39;;;;;;;5.72;3.33;;;;;;;20.54;54.29;99562.78;7619538;32;39382;-79
2022/07/27 01:39:54;;;;;;;8.88;3.65;;;;;;;20.38;53.59;99577.31;7591900;32;40829;-77
2022/07/27 01:44:11;;;;;;;7.22;3.37;;;;;;;20.36;53.65;99587.13;7605255;32;39481;-77
2022/07/27 01:48:27;;;;;;;9.40;3.60;;;;;;;20.05;54.50;99591.16;7605332;32;37268;-78
2022/07/27 01:52:43;;;;;;;7.18;3.87;;;;;;;19.99;55.41;99584.22;7605177;32;40515;-78
2022/07/27 01:56:59;;;;;;;6.05;3.45;;;;;;;20.01;55.29;99579.19;7604829;32;40001;-78
2022/07/27 02:01:15;;;;;;;9.80;3.58;;;;;;;20.24;54.74;99574.84;7604789;32;38710;-78
2022/07/27 02:05:31;;;;;;;6.45;4.07;;;;;;;20.26;54.81;99580.88;7612624;32;37204;-79
2022/07/27 02:09:47;;;;;;;5.95;3.67;;;;;;;20.44;54.48;99570.41;7604779;32;40151;-79
2022/07/27 02:14:03;;;;;;;7.28;3.83;;;;;;;20.41;54.77;99559.22;7604638;32;39866;-78
2022/07/27 02:18:19;;;;;;;4.53;3.37;;;;;;;20.39;55.14;99567.84;7628912;32;38018;-78
2022/07/27 02:22:49;;;;;;;5.32;3.75;;;;;;;20.17;55.45;99569.06;7630266;32;37352;-79
2022/07/27 02:27:05;;;;;;;6.05;3.78;;;;;;;20.13;55.41;99576.44;7613015;32;39391;-78
2022/07/27 02:31:21;;;;;;;6.95;3.70;;;;;;;19.81;56.32;99565.03;7604178;32;40834;-79
2022/07/27 02:35:38;;;;;;;7.70;3.85;;;;;;;20.06;55.41;99562.38;7615666;32;37600;-78
2022/07/27 02:39:54;;;;;;;8.13;3.67;;;;;;;20.01;55.38;99560.59;7630055;32;37073;-79
2022/07/27 02:44:13;;;;;;;5.05;3.65;;;;;;;20.02;55.74;99561.41;7620035;32;39430;-78
2022/07/27 02:48:30;;;;;;;6.82;4.05;;;;;;;19.77;57.05;99566.84;7629163;32;40122;-78
2022/07/27 02:52:46;;;;;;;6.95;3.67;;;;;;;19.57;57.99;99567.66;7629665;32;38010;-79
2022/07/27 02:57:03;;;;;;;6.30;4.15;;;;;;;19.55;57.72;99559.69;7612993;32;37895;-78
2022/07/27 03:01:19;;;;;;;7.32;4.03;;;;;;;19.40;58.27;99563.84;7603532;32;39096;-78
2022/07/27 03:05:35;;;;;;;10.63;4.90;;;;;;;19.59;58.08;99563.41;7604142;32;40604;-78
2022/07/27 03:09:51;;;;;;;6.97;4.40;;;;;;;19.23;59.42;99566.75;7605375;32;38415;-79
2022/07/27 03:14:07;;;;;;;7.03;3.97;;;;;;;19.50;58.50;99560.69;7631989;32;36772;-79
2022/07/27 03:18:24;;;;;;;7.50;4.68;;;;;;;19.50;58.64;99562.66;7607578;32;40026;-79
2022/07/27 03:22:40;;;;;;;10.43;5.35;;;;;;;19.26;59.37;99566.06;7606835;32;39979;-78
2022/07/27 03:26:56;;;;;;;7.85;4.25;;;;;;;19.19;59.55;99568.56;7599849;32;37972;-79
2022/07/27 03:31:12;;;;;;;7.40;4.30;;;;;;;19.38;58.67;99568.13;7593624;32;37946;-79
2022/07/27 03:35:29;;;;;;;8.77;4.55;;;;;;;19.24;59.06;99573.91;7614357;32;40124;-78
2022/07/27 03:39:45;;;;;;;6.72;4.20;;;;;;;19.37;58.48;99572.00;7632954;32;40826;-78
2022/07/27 03:44:01;;;;;;;6.75;4.75;;;;;;;19.36;58.61;99565.69;7624303;32;37831;-79
2022/07/27 03:48:17;;;;;;;6.57;4.20;;;;;;;19.39;58.62;99562.25;7630765;32;37380;-79
2022/07/27 03:52:33;;;;;;;8.52;4.60;;;;;;;19.43;58.32;99554.88;7632831;32;39486;-79
2022/07/27 03:56:49;;;;;;;7.22;4.35;;;;;;;19.38;58.71;99546.00;7618149;32;40765;-78
2022/07/27 04:01:05;;;;;;;8.98;4.55;;;;;;;19.51;58.30;99542.16;7606550;32;38626;-79
2022/07/27 04:05:21;;;;;;;8.27;4.20;;;;;;;19.46;58.03;99548.69;7611909;32;37129;-78
2022/07/27 04:09:37;;;;;;;8.85;4.50;;;;;;;19.78;56.91;99543.59;7632587;32;39457;-78
2022/07/27 04:13:56;;;;;;;9.10;5.62;;;;;;;19.95;56.23;99541.78;7632573;32;40003;-79
2022/07/27 04:18:14;;;;;;;8.52;4.80;;;;;;;20.01;55.94;99545.97;7608890;32;37995;-78
2022/07/27 04:22:30;;;;;;;8.75;4.68;;;;;;;19.95;56.35;99558.37;7605174;32;37833;-78
2022/07/27 04:26:46;;;;;;;8.07;3.87;;;;;;;19.88;57.01;99565.28;7619779;32;39257;-78
2022/07/27 04:31:02;;;;;;;8.65;4.32;;;;;;;19.91;56.98;99574.87;7632359;32;39934;-79
2022/07/27 04:35:18;;;;;;;10.60;4.75;;;;;;;19.96;57.56;99571.88;7623118;32;37923;-78
2022/07/27 04:39:41;;;;;;;7.82;4.45;;;;;;;19.75;58.35;99577.44;7606154;32;37117;-78
2022/07/27 04:43:58;;;;;;;8.80;4.65;;;;;;;20.00;57.47;99560.94;7629822;32;39325;-74
2022/07/27 04:48:14;;;;;;;8.23;4.35;;;;;;;20.08;57.91;99571.12;7615514;32;40817;-74
2022/07/27 04:52:30;;;;;;;10.10;4.93;;;;;;;20.37;57.02;99569.34;7620327;32;38635;-75
2022/07/27 04:56:47;;;;;;;10.30;4.55;;;;;;;20.89;55.06;99574.28;7630747;32;37884;-75
2022/07/27 05:01:03;;;;;;;9.98;4.22;;;;;;;21.23;54.13;99571.34;7631100;32;39285;-75
2022/07/27 05:05:20;;;;;;;9.77;4.80;;;;;;;21.32;54.00;99570.09;7615163;32;39661;-74
2022/07/27 05:09:36;;;;;;;7.70;4.62;;;;;;;21.60;53.21;99580.44;7623675;32;37966;-75
2022/07/27 05:13:52;;;;;;;14.10;5.00;;;;;;;21.67;52.86;99588.16;7630035;32;37095;-75
2022/07/27 05:18:08;;;;;;;8.75;5.10;;;;;;;21.76;53.36;99595.19;7609928;32;39480;-75
2022/07/27 05:22:24;;;;;;;9.57;4.97;;;;;;;21.80;53.40;99594.47;7603984;32;39893;-75
2022/07/27 05:26:40;;;;;;;9.38;4.55;;;;;;;21.96;53.31;99600.09;7616135;32;38385;-75
2022/07/27 05:30:56;;;;;;;10.20;4.25;;;;;;;22.06;53.21;99617.06;7630515;32;37132;-76
2022/07/27 05:35:12;;;;;;;9.38;4.53;;;;;;;22.28;52.98;99601.84;7631028;32;39336;-78
2022/07/27 05:39:28;;;;;;;7.37;4.55;;;;;;;22.73;51.81;99599.00;7631478;32;40054;-78
2022/07/27 05:43:44;;;;;;;8.25;4.68;;;;;;;22.54;51.62;99599.69;7622540;32;38086;-78
2022/07/27 05:48:00;;;;;;;8.15;4.72;;;;;;;22.69;51.13;99613.59;7614997;32;37236;-77
2022/07/27 05:52:17;;;;;;;7.35;4.62;;;;;;;22.87;51.09;99621.59;7605339;32;39450;-77
2022/07/27 05:56:34;;;;;;;13.77;5.45;;;;;;;23.06;50.37;99612.56;7615601;32;40074;-77
2022/07/27 06:00:50;;;;;;;9.32;4.87;;;;;;;23.05;50.17;99620.06;7630975;32;38685;-79
2022/07/27 06:05:07;;;;;;;5.95;4.05;;;;;;;23.36;49.11;99617.63;7629337;32;37280;-78
2022/07/27 06:09:30;;;;;;;11.25;4.90;;;;;;;23.58;48.52;99616.12;7624043;32;39408;-77
2022/07/27 06:13:46;;;;;;;7.65;4.30;;;;;;;23.65;47.92;99619.06;7630780;32;40828;-78
2022/07/27 06:18:05;;;;;;;8.30;4.75;;;;;;;23.86;47.52;99615.97;7610918;32;37960;-78
2022/07/27 06:22:21;;;;;;;7.47;4.75;;;;;;;24.08;45.94;99622.78;7621729;32;37188;-77
2022/07/27 06:26:37;;;;;;;8.73;5.10;;;;;;;23.76;46.91;99627.63;7619752;32;40533;-77
2022/07/27 06:30:53;;;;;;;8.57;5.22;;;;;;;23.17;50.89;99627.50;7618238;32;41245;-76
2022/07/27 06:35:10;;;;;;;9.85;5.32;;;;;;;22.96;51.63;99638.91;7604334;32;39602;-77
2022/07/27 06:39:28;;;;;;;8.60;5.12;;;;;;;23.16;50.84;99641.78;7603959;32;38135;-77
2022/07/27 06:43:44;;;;;;;9.73;5.60;;;;;;;23.50;49.49;99634.63;7605105;32;39484;-76
2022/07/27 06:48:01;;;;;;;10.18;5.25;;;;;;;23.72;48.41;99629.53;7607506;32;40724;-76
2022/07/27 06:52:17;;;;;;;7.57;4.68;;;;;;;23.57;48.23;99618.09;7607316;32;38755;-78
2022/07/27 06:56:33;;;;;;;7.68;4.50;;;;;;;23.92;45.26;99627.59;7607521;32;37009;-76
2022/07/27 07:00:49;;;;;;;9.05;4.70;;;;;;;23.47;47.12;99629.78;7607375;32;40150;-75
2022/07/27 07:05:06;;;;;;;11.48;4.72;;;;;;;23.61;47.52;99619.00;7607414;32;39774;-74
2022/07/27 07:09:22;;;;;;;7.80;4.03;;;;;;;23.73;45.91;99626.41;7607312;32;37939;-74
2022/07/27 07:13:38;;;;;;;10.30;4.62;;;;;;;24.40;45.29;99621.78;7607316;32;37788;-75
2022/07/27 07:18:01;;;;;;;11.60;4.22;;;;;;;24.71;42.23;99618.78;7607147;32;39945;-75
2022/07/27 07:22:17;;;;;;;9.70;4.10;;;;;;;24.51;41.59;99625.59;7607092;32;40069;-75
2022/07/27 07:26:35;;;;;;;7.68;4.15;;;;;;;24.81;42.19;99611.78;7606959;32;37984;-76
2022/07/27 07:30:51;;;;;;;6.62;3.92;;;;;;;25.22;40.68;99608.47;7608314;32;37845;-76
2022/07/27 07:35:07;;;;;;;9.18;4.40;;;;;;;25.83;40.37;99604.53;7607786;32;39356;-74
2022/07/27 07:39:23;;;;;;;9.27;4.45;;;;;;;25.87;40.13;99601.78;7606799;32;40037;-74
2022/07/27 07:43:46;;;;;;;8.17;3.67;;;;;;;25.89;40.12;99607.00;7607052;32;38750;-76
2022/07/27 07:48:02;;;;;;;9.82;3.53;;;;;;;26.52;39.15;99603.34;7606911;32;37102;-76
2022/07/27 07:52:18;;;;;;;4.75;3.10;;;;;;;26.14;38.83;99599.75;7607567;32;39436;-77
2022/07/27 07:56:34;;;;;;;8.48;3.25;;;;;;;26.84;36.27;99596.44;7608058;32;40815;-76
2022/07/27 08:00:50;;;;;;;6.90;3.40;;;;;;;27.01;36.15;99592.19;7606440;32;38074;-76
2022/07/27 08:05:07;;;;;;;7.53;3.17;;;;;;;26.44;34.73;99590.50;7606686;32;37349;-79
2022/07/27 08:09:25;;;;;;;7.55;3.08;;;;;;;27.06;35.04;99591.81;7606677;32;40947;-76
2022/07/27 08:13:41;;;;;;;4.22;2.80;;;;;;;26.92;34.35;99587.75;7618374;32;39026;-76
2022/07/27 08:17:58;;;;;;;5.35;2.65;;;;;;;26.80;33.71;99588.03;7606076;32;38758;-77
2022/07/27 08:22:13;;;;;;;9.45;2.90;;;;;;;26.90;33.94;99589.31;7605958;32;36790;-77
2022/07/27 08:26:30;;;;;;;9.88;2.72;;;;;;;26.36;34.39;99592.41;7606378;32;39014;-78
2022/07/27 08:30:46;;;;;;;4.47;2.67;;;;;;;27.38;32.68;99582.87;7606342;32;39583;-77
2022/07/27 08:35:04;;;;;;;6.95;2.62;;;;;;;27.49;31.88;99572.53;7606208;32;37892;-76
2022/07/27 08:39:20;;;;;;;5.40;2.70;;;;;;;27.84;31.24;99571.12;7606286;32;37110;-78
2022/07/27 08:43:58;;;;;;;5.28;2.28;;;;;;;28.21;30.44;99568.03;7605730;32;40558;-76
2022/07/27 08:48:14;;;;;;;7.25;2.60;;;;;;;28.36;29.43;99563.25;7592884;32;39613;-77
2022/07/27 08:52:30;;;;;;;4.15;2.72;;;;;;;28.25;30.23;99562.44;7606346;32;35014;-77
2022/07/27 08:56:47;;;;;;;4.72;2.40;;;;;;;27.63;29.62;99555.81;7606197;32;36983;-76
2022/07/27 09:01:03;;;;;;;4.00;2.50;;;;;;;28.01;30.31;99552.75;7605920;32;40062;-76
2022/07/27 09:05:20;;;;;;;8.35;2.85;;;;;;;28.20;29.68;99557.22;7605504;32;40110;-76
2022/07/27 09:09:46;;;;;;;4.12;2.50;;;;;;;27.28;29.54;99546.03;7605517;32;37850;-76
2022/07/27 09:14:04;;;;;;;8.73;2.62;;;;;;;28.52;29.56;99548.84;7606292;32;35207;-75
2022/07/27 09:18:23;;;;;;;8.20;2.97;;;;;;;28.36;28.83;99545.66;7592630;32;38600;-77
2022/07/27 09:22:44;;;;;;;5.05;2.78;;;;;;;28.84;27.75;99537.66;7605427;32;39760;-76
2022/07/27 09:27:04;;;;;;;5.50;2.78;;;;;;;28.42;27.82;99533.66;7605522;32;38750;-76
2022/07/27 09:31:20;;;;;;;5.10;2.55;;;;;;;28.03;28.53;99544.78;7605532;32;37444;-75
2022/07/27 09:35:37;;;;;;;4.30;2.47;;;;;;;28.72;26.75;99538.06;7605532;32;40094;-74
2022/07/27 09:40:13;;;;;;;4.25;2.70;;;;;;;28.94;26.36;99535.25;7605290;32;39932;-74
2022/07/27 09:44:37;;;;;;;4.35;2.50;;;;;;;28.69;27.40;99526.88;7605375;32;39068;-73
2022/07/27 09:48:59;;;;;;;8.52;2.50;;;;;;;29.49;26.15;99531.91;7605358;32;37898;-74
2022/07/27 09:53:21;;;;;;;7.30;3.15;;;;;;;29.55;25.72;99530.28;7605326;32;39072;-74
2022/07/27 09:57:57;;;;;;;3.80;2.65;;;;;;;30.00;24.66;99526.91;7605220;32;39322;-73
2022/07/27 10:02:14;;;;;;;5.28;2.83;;;;;;;29.82;26.30;99524.19;7604934;32;38541;-73
2022/07/27 10:06:30;;;;;;;5.85;2.95;;;;;;;30.25;24.39;99525.94;7591808;32;37958;-73
2022/07/27 10:11:07;;;;;;;5.07;3.05;;;;;;;29.46;25.65;99535.56;7604354;32;40474;-74
2022/07/27 10:15:24;;;;;;;5.45;3.15;;;;;;;30.24;24.15;99530.75;7604795;32;39992;-72
2022/07/27 10:19:49;;;;;;;4.40;2.92;;;;;;;31.03;23.51;99515.28;7631496;32;38670;-73
2022/07/27 10:24:33;;;;;;;7.65;3.37;;;;;;;30.76;23.45;99526.38;7620198;32;37232;-73
2022/07/27 10:29:15;;;;;;;4.75;2.78;;;;;;;31.66;22.18;99514.16;7633653;32;39064;-73
2022/07/27 10:33:52;;;;;;;6.90;3.28;;;;;;;30.40;23.97;99512.59;7633435;32;39953;-73
2022/07/27 10:38:17;;;;;;;6.80;3.80;;;;;;;31.43;21.75;99522.06;7633681;32;38906;-73
2022/07/27 10:42:33;;;;;;;8.05;3.55;;;;;;;30.26;23.14;99519.09;7620592;32;37852;-73
2022/07/27 10:46:55;;;;;;;5.37;3.22;;;;;;;31.75;22.75;99512.44;7633575;32;39301;-73
2022/07/27 10:51:11;;;;;;;7.47;2.80;;;;;;;32.13;20.52;99508.69;7633369;32;40723;-73
2022/07/27 10:55:35;;;;;;;5.75;3.10;;;;;;;31.78;20.35;99511.56;7619884;32;37548;-73
2022/07/27 10:59:51;;;;;;;7.30;3.20;;;;;;;32.14;19.92;99504.66;7633654;32;37282;-73
2022/07/27 11:04:27;;;;;;;5.62;2.90;;;;;;;32.76;20.05;99505.28;7633051;32;39535;-73
2022/07/27 11:08:45;;;;;;;5.25;3.28;;;;;;;32.29;19.64;99513.66;7633145;32;40797;-73
2022/07/27 11:13:11;;;;;;;6.90;3.30;;;;;;;32.53;18.93;99492.75;7633057;32;37853;-73
2022/07/27 11:17:29;;;;;;;5.43;3.17;;;;;;;33.46;18.32;99484.56;7633323;32;37902;-73
2022/07/27 11:22:05;;;;;;;6.30;3.22;;;;;;;33.43;17.71;99484.66;7632654;32;39671;-73
2022/07/27 11:26:46;;;;;;;6.25;3.00;;;;;;;34.01;16.31;99479.34;7632765;32;40113;-73
2022/07/27 11:31:04;;;;;;;4.30;2.70;;;;;;;34.34;15.85;99470.09;7631688;32;37152;-74
2022/07/27 11:35:20;;;;;;;3.30;2.28;;;;;;;34.46;14.76;99468.59;7631105;32;37151;-74
2022/07/27 11:39:36;;;;;;;3.90;2.20;;;;;;;34.73;14.94;99465.50;7632319;32;40293;-74
2022/07/27 11:44:15;;;;;;;2.58;2.03;;;;;;;34.06;14.36;99458.22;7631691;32;40399;-73
2022/07/27 11:48:32;;;;;;;3.00;1.80;;;;;;;33.96;14.08;99462.91;7632203;32;39208;-74
2022/07/27 11:53:08;;;;;;;3.28;2.05;;;;;;;34.67;14.14;99459.53;7629140;32;38030;-74
2022/07/27 11:57:31;;;;;;;4.55;2.10;;;;;;;34.73;13.52;99454.16;7615902;32;39076;-74
2022/07/27 12:01:53;;;;;;;5.40;1.67;;;;;;;35.69;12.79;99446.97;7629841;32;39635;-74
2022/07/27 12:06:09;;;;;;;2.45;1.70;;;;;;;34.82;13.47;99451.47;7631316;32;38679;-74
2022/07/27 12:10:25;;;;;;;2.45;1.40;;;;;;;35.29;13.32;99450.19;7632682;32;37114;-74
2022/07/27 12:14:43;;;;;;;1.67;1.48;;;;;;;35.35;13.39;99442.72;7619270;32;39905;-74
2022/07/27 12:18:58;;;;;;;5.82;1.90;;;;;;;33.40;15.34;99445.97;7631299;32;40762;-74
2022/07/27 12:23:15;;;;;;;5.37;1.85;;;;;;;33.42;15.88;99443.50;7631687;32;38630;-74
2022/07/27 12:27:31;;;;;;;6.15;1.83;;;;;;;34.04;15.02;99432.41;7632460;32;38264;-74
2022/07/27 12:31:48;;;;;;;5.03;1.87;;;;;;;34.15;17.12;99426.50;7614167;32;39255;-75
2022/07/27 12:36:06;;;;;;;2.67;1.40;;;;;;;34.29;15.07;99420.53;7606678;32;39972;-74
2022/07/27 12:40:22;;;;;;;3.28;1.60;;;;;;;34.52;14.63;99421.53;7619012;32;38067;-74
2022/07/27 12:44:41;;;;;;;4.82;1.67;;;;;;;34.65;14.15;99413.09;7631357;32;37037;-74
2022/07/27 12:48:57;;;;;;;4.20;1.70;;;;;;;35.01;13.16;99403.62;7630830;32;39929;-74
2022/07/27 12:53:15;;;;;;;2.28;1.62;;;;;;;35.56;13.35;99400.81;7631287;32;39662;-74
2022/07/27 12:57:31;;;;;;;2.45;1.20;;;;;;;35.49;14.19;99401.81;7626475;32;38459;-74
2022/07/27 13:02:07;;;;;;;3.35;1.50;;;;;;;34.87;13.36;99393.53;7628494;32;38075;-74
2022/07/27 13:06:23;;;;;;;3.15;1.58;;;;;;;35.02;12.59;99391.09;7605999;32;39894;-74
2022/07/27 13:10:40;;;;;;;2.97;1.37;;;;;;;34.30;13.45;99396.63;7614956;32;39927;-74
2022/07/27 13:14:56;;;;;;;2.85;1.45;;;;;;;34.52;13.58;99398.91;7605815;32;38075;-74
2022/07/27 13:19:14;;;;;;;2.20;1.20;;;;;;;34.61;14.01;99399.84;7618885;32;36839;-74
2022/07/27 13:23:31;;;;;;;4.18;1.42;;;;;;;33.67;13.71;99395.72;7631827;32;39504;-73
2022/07/27 13:27:48;;;;;;;8.20;1.25;;;;;;;33.50;14.84;99396.91;7619179;32;39996;-74
2022/07/27 13:32:04;;;;;;;4.28;1.58;;;;;;;33.83;14.71;99388.50;7611904;32;37872;-74
2022/07/27 13:36:21;;;;;;;6.80;1.50;;;;;;;33.60;14.15;99380.94;7605277;32;37204;-73
2022/07/27 13:40:37;;;;;;;2.92;1.30;;;;;;;34.20;13.26;99372.25;7627965;32;39388;-74
2022/07/27 13:45:00;;;;;;;5.32;1.80;;;;;;;33.57;13.61;99376.97;7601575;32;40018;-73
2022/07/27 13:49:24;;;;;;;2.35;1.17;;;;;;;33.13;14.70;99373.47;7581376;32;36502;-74
2022/07/27 13:53:40;;;;;;;2.50;1.40;;;;;;;32.80;14.01;99369.72;7590326;32;37344;-74
2022/07/27 13:57:56;;;;;;;2.90;1.52;;;;;;;33.24;15.35;99368.44;7604066;32;39120;-74
2022/07/27 14:02:12;;;;;;;2.72;1.30;;;;;;;32.43;16.21;99366.00;7598248;32;40085;-75
2022/07/27 14:06:31;;;;;;;2.67;1.48;;;;;;;32.34;17.41;99366.53;7600581;32;38088;-74
2022/07/27 14:10:49;;;;;;;2.62;1.60;;;;;;;32.05;18.39;99367.06;7604698;32;37138;-74
2022/07/27 14:15:06;;;;;;;3.33;1.70;;;;;;;31.99;18.78;99363.09;7592265;32;39261;-75
2022/07/27 14:19:22;;;;;;;3.28;1.70;;;;;;;32.44;19.33;99359.91;7592604;32;40996;-75
2022/07/27 14:23:39;;;;;;;5.30;2.00;;;;;;;32.01;19.75;99366.28;7605211;32;38846;-75
2022/07/27 14:27:58;;;;;;;4.75;1.92;;;;;;;32.53;19.39;99357.31;7613798;32;37636;-75
2022/07/27 14:32:15;;;;;;;2.95;1.90;;;;;;;32.30;20.04;99351.72;7604040;32;37936;-75
2022/07/27 14:36:33;;;;;;;2.15;1.92;;;;;;;32.07;21.14;99364.59;7608343;32;39783;-76
2022/07/27 14:40:49;;;;;;;3.33;2.10;;;;;;;31.39;22.34;99363.59;7623502;32;38620;-75
2022/07/27 14:45:06;;;;;;;4.93;2.10;;;;;;;31.35;21.81;99365.66;7608268;32;37631;-75
2022/07/27 14:49:24;;;;;;;5.45;2.25;;;;;;;31.32;22.88;99358.06;7607984;32;40138;-75
2022/07/27 14:53:50;;;;;;;3.95;2.12;;;;;;;31.25;22.98;99356.16;7611404;32;39946;-76
2022/07/27 14:58:09;;;;;;;2.97;1.92;;;;;;;31.26;22.46;99356.94;7612755;32;36831;-76
2022/07/27 15:02:25;;;;;;;3.90;2.10;;;;;;;31.42;20.86;99359.91;7602802;32;37150;-76
2022/07/27 15:06:42;;;;;;;3.08;1.85;;;;;;;31.39;21.40;99362.78;7605012;32;40594;-76
2022/07/27 15:10:58;;;;;;;4.85;2.08;;;;;;;30.74;21.49;99357.19;7606672;32;39891;-76
2022/07/27 15:15:14;;;;;;;3.60;1.98;;;;;;;31.20;21.71;99355.81;7605726;32;38768;-76
2022/07/27 15:19:30;;;;;;;4.95;2.37;;;;;;;31.21;22.16;99360.22;7606721;32;38143;-76
2022/07/27 15:23:46;;;;;;;3.95;2.28;;;;;;;31.14;22.79;99361.13;7606561;32;40101;-76
2022/07/27 15:28:02;;;;;;;6.50;2.53;;;;;;;31.14;23.04;99361.13;7606693;32;40059;-76
2022/07/27 15:32:18;;;;;;;7.18;2.35;;;;;;;31.00;24.57;99350.84;7606978;32;37966;-76
2022/07/27 15:36:34;;;;;;;5.00;2.33;;;;;;;31.10;23.59;99353.94;7606229;32;37177;-76
2022/07/27 15:40:58;;;;;;;4.37;2.37;;;;;;;31.11;22.82;99356.31;7606989;32;39423;-76
2022/07/27 15:45:14;;;;;;;4.15;2.20;;;;;;;31.08;23.40;99352.34;7592808;32;40838;-78
2022/07/27 15:49:30;;;;;;;6.03;2.55;;;;;;;31.25;23.35;99355.34;7606714;32;38775;-74
2022/07/27 15:53:46;;;;;;;9.48;2.22;;;;;;;31.11;23.52;99353.50;7592871;32;37967;-74
2022/07/27 15:58:04;;;;;;;5.82;2.75;;;;;;;30.95;24.40;99359.75;7605977;32;39378;-74
2022/07/27 16:02:20;;;;;;;5.78;2.80;;;;;;;30.70;24.35;99366.47;7606451;32;40867;-74
2022/07/27 16:06:39;;;;;;;3.95;2.58;;;;;;;30.99;24.75;99368.16;7606003;32;38133;-75
2022/07/27 16:10:56;;;;;;;7.30;2.70;;;;;;;30.80;25.25;99369.56;7606571;32;37149;-75
2022/07/27 16:15:12;;;;;;;4.20;2.75;;;;;;;30.87;25.49;99378.72;7606018;32;39989;-75
2022/07/27 16:19:28;;;;;;;3.83;2.75;;;;;;;30.82;25.77;99372.75;7605993;32;39936;-74
2022/07/27 16:23:44;;;;;;;7.25;3.00;;;;;;;30.34;25.17;99377.25;7605613;32;37875;-74
2022/07/27 16:28:00;;;;;;;5.75;2.85;;;;;;;29.58;27.28;99379.84;7605465;32;37098;-74
2022/07/27 16:32:16;;;;;;;9.80;2.65;;;;;;;29.92;27.04;99380.00;7592954;32;39352;-74
2022/07/27 16:36:32;;;;;;;10.05;3.12;;;;;;;30.14;27.20;99391.87;7592326;32;41424;-74
2022/07/27 16:40:54;;;;;;;8.60;3.13;;;;;;;30.21;26.78;99388.22;7606239;32;37626;-74
2022/07/27 16:45:10;;;;;;;7.18;2.95;;;;;;;30.29;26.92;99388.97;7606014;32;37012;-74
2022/07/27 16:49:26;;;;;;;9.35;2.80;;;;;;;29.98;26.41;99402.06;7605825;32;40094;-73
2022/07/27 16:53:51;;;;;;;4.45;2.83;;;;;;;29.80;26.81;99414.22;7606005;32;39962;-74
2022/07/27 16:58:08;;;;;;;8.02;2.80;;;;;;;29.96;26.08;99420.13;7605459;32;38778;-73
2022/07/27 17:02:29;;;;;;;4.90;2.50;;;;;;;29.86;26.16;99421.00;7605868;32;37142;-74
2022/07/27 17:06:45;;;;;;;4.87;2.65;;;;;;;29.37;26.88;99425.69;7605788;32;40044;-74
2022/07/27 17:11:01;;;;;;;5.15;2.50;;;;;;;29.31;27.22;99430.13;7605610;32;40700;-74
2022/07/27 17:15:20;;;;;;;3.78;2.50;;;;;;;29.19;27.45;99420.94;7605488;32;37851;-74
2022/07/27 17:19:36;;;;;;;3.42;2.30;;;;;;;29.29;27.32;99426.94;7605217;32;37021;-74
2022/07/27 17:23:52;;;;;;;6.37;2.65;;;;;;;29.26;27.42;99427.75;7591930;32;39258;-73
2022/07/27 17:28:08;;;;;;;4.30;2.50;;;;;;;29.00;27.83;99424.22;7604445;32;40888;-73
2022/07/27 17:32:24;;;;;;;6.95;2.35;;;;;;;29.09;27.82;99426.59;7605391;32;39072;-74
2022/07/27 17:36:40;;;;;;;7.37;2.85;;;;;;;28.68;28.52;99422.28;7605462;32;37766;-74
2022/07/27 17:40:56;;;;;;;4.25;2.33;;;;;;;28.52;29.05;99424.69;7605313;32;39248;-78
2022/07/27 17:45:12;;;;;;;5.95;2.10;;;;;;;28.52;29.42;99424.69;7603905;32;40202;-75
2022/07/27 17:49:28;;;;;;;4.60;2.30;;;;;;;27.24;31.58;99438.88;7605239;32;38100;-74
2022/07/27 17:53:45;;;;;;;10.70;2.80;;;;;;;27.33;31.52;99444.91;7605215;32;37928;-75
2022/07/27 17:58:01;;;;;;;4.65;2.47;;;;;;;27.53;30.31;99455.81;7605072;32;40043;-75
2022/07/27 18:02:17;;;;;;;5.90;2.35;;;;;;;27.44;30.40;99463.75;7604945;32;39896;-74
2022/07/27 18:06:34;;;;;;;9.07;3.12;;;;;;;27.48;30.03;99456.19;7592428;32;420048;-76
2022/07/27 18:10:50;;;;;;;3.90;2.28;;;;;;;27.65;29.78;99469.44;7604896;32;36929;-75
2022/07/27 18:19:41;;;;;;;4.18;2.33;;;;;;;27.36;30.54;99490.91;7604815;32;40879;-74
2022/07/27 18:23:58;;;;;;;6.72;2.67;;;;;;;27.45;30.18;99494.16;7604281;32;37672;-74
2022/07/27 18:28:15;;;;;;;4.57;2.65;;;;;;;26.98;32.14;99498.69;7591273;32;37566;-74
2022/07/27 18:32:32;;;;;;;4.87;2.42;;;;;;;26.76;33.62;99515.31;7590739;32;39324;-73
2022/07/27 18:36:48;;;;;;;8.57;3.10;;;;;;;26.54;35.14;99536.66;7604297;32;40757;-75
2022/07/27 18:41:04;;;;;;;6.60;3.00;;;;;;;26.73;35.64;99532.06;7606179;32;37908;-74
2022/07/27 18:45:20;;;;;;;7.95;3.53;;;;;;;26.60;36.62;99535.13;7607669;32;37127;-71
2022/07/27 18:49:49;;;;;;;5.30;2.97;;;;;;;25.97;40.70;99541.69;7607600;32;39059;-74
2022/07/27 18:54:05;;;;;;;10.60;3.67;;;;;;;26.19;38.83;99542.75;7607112;32;39871;-74
2022/07/27 18:58:21;;;;;;;8.20;3.78;;;;;;;25.88;41.49;99538.38;7607109;32;37869;-73
2022/07/27 19:02:37;;;;;;;10.32;4.22;;;;;;;25.62;43.80;99548.44;7607026;32;37032;-73
2022/07/27 19:06:56;;;;;;;7.80;4.10;;;;;;;25.61;44.70;99563.56;7607082;32;39386;-74
2022/07/27 19:11:15;;;;;;;5.85;3.40;;;;;;;25.70;45.20;99568.88;7607021;32;40128;-73
2022/07/27 19:15:32;;;;;;;8.57;4.30;;;;;;;25.25;46.24;99571.44;7606912;32;38712;-74
2022/07/27 19:19:48;;;;;;;6.28;3.40;;;;;;;25.05;46.35;99565.97;7606968;32;37072;-74
2022/07/27 19:24:05;;;;;;;7.20;3.85;;;;;;;25.46;44.96;99577.34;7606705;32;39294;-74
2022/07/27 19:28:22;;;;;;;7.47;3.35;;;;;;;25.20;45.15;99569.78;7606837;32;38462;-74
2022/07/27 19:32:38;;;;;;;5.87;3.50;;;;;;;25.13;44.59;99569.69;7606703;32;38672;-74
2022/07/27 19:36:54;;;;;;;5.00;3.22;;;;;;;24.97;44.31;99577.38;7606797;32;36977;-75
2022/07/27 19:41:10;;;;;;;10.48;3.75;;;;;;;25.03;44.58;99596.22;7606862;32;39387;-71
2022/07/27 19:45:26;;;;;;;4.43;3.17;;;;;;;24.87;44.78;99592.75;7606453;32;40023;-72
2022/07/27 19:49:42;;;;;;;10.13;3.45;;;;;;;25.13;43.53;99600.38;7606058;32;37942;-72
2022/07/27 19:53:59;;;;;;;4.35;2.80;;;;;;;24.73;40.89;99618.41;7606641;32;37837;-72
2022/07/27 19:58:15;;;;;;;6.22;2.95;;;;;;;25.12;41.14;99627.44;7606509;32;40061;-72
2022/07/27 20:02:34;;;;;;;4.93;2.42;;;;;;;24.86;41.58;99636.56;7606415;32;38346;-72
2022/07/27 20:06:50;;;;;;;5.28;2.55;;;;;;;24.72;41.01;99639.91;7593096;32;38791;-72
2022/07/27 20:11:06;;;;;;;3.50;2.58;;;;;;;24.78;40.71;99639.59;7606387;32;37900;-72
2022/07/27 20:15:22;;;;;;;8.18;3.05;;;;;;;24.33;42.12;99653.88;7606419;32;40316;-72